Anamosa, IA

4:39 PM CDT on May 03, 2015 (GMT -0500)
Whittier | | Change Station
CLOSE
Current Station
Personal Weather Station
Location: Springville, IA
Elevation: 885 ft
Nearby Weather Stations

Elev 885 ft 42.08 °N, 91.46 °W | Updated 25 seconds ago

Mostly Cloudy
Mostly Cloudy
73.0 °F
Feels Like 74 °F
N
3.6
Wind Variable Wind from ESE
Gusts 5.0 mph

Today
High -- | Low -- °F
--% Chance of Precip.
Yesterday
High -- | Low -- °F
Precip. -- in
5:58 AM 8:06 PM
Full, 100% visible
Pressure 29.85 in
Visibility 10.0 miles
Clouds Mostly Cloudy 10000 ft
Heat Index 74 °F
Dew Point 65 °F
Humidity 75%
Rainfall 0.11 in
Snow Depth Not available.
UV 3 out of 12
Pollen 10.30 out of 12
Air Quality Not available.
Flu Activity Local Activity
METAR KMXO 032115Z AUTO 16007KT 10SM BKN100 23/17 A2985 RMK AO2

More Conditions Fewer Conditions

Pressure 29.85 in
Visibility 10.0 miles
Clouds Mostly Cloudy 10000 ft
Heat Index 74 °F
Dew Point 65 °F
Humidity 75%
Rainfall 0.11 in
Snow Depth Not available.
UV 3 out of 12
Pollen 10.30 out of 12
Air Quality Not available.
Flu Activity Local Activity
METAR KMXO 032115Z AUTO 16007KT 10SM BKN100 23/17 A2985 RMK AO2

More Conditions Fewer Conditions

Nepal has a long way to go to dig out and rebuild from a devastating earthquake. We have teamed up with several charities and organizations to make contributing to the relief effort as easy as possible.
How you can help: Portlight Strategies | Red Cross

10-Day Weather Forecast

Almanac

Astronomy

May. 03, 2015 Rise Set
Actual Time
Civil Twilight
Nautical Twilight
Astronomical Twilight
Moon
Length of Visible Light
Length of Day
Tomorrow will be .
, % of the Moon is Illuminated

Today's Extremes

State Highs State Lows

Community

WunderPhotos

Upload Photos

1,818,377 photos uploaded!

WunderBlogs® & News

Nearby

Air Quality

  Air Quality AQ Index Pollutant
Not available.

Snow Depth

Station Depth Elevation

Earthquake Activity

City Distance Mag. Time & Date
Minimum magnitude displayed is 2.5.

Coastal Water Temperatures

Place Temperature

Stations

Nearby Weather Stations

Station Location Temp. Windchill Dew Point Humidity Wind Precip. Elev Updated Type